Time;durP1;ratioP1;P1;durP2;ratioP2;P2;SDS_P1;SDS_P2;PMS_P1;PMS_P2;Temp;Humidity;BMP_temperature;BMP_pressure;BME280_temperature;BME280_humidity;BME280_pressure;Samples;Min_cycle;Max_cycle;Signal;HPM_P1;HPM_P2
2023/01/09 16:46:42;;;;;;;;;;;;;;;;;;;;;
2023/01/09 16:50:08;;;;;;;11.85;10.65;;;;;;;8.74;72.50;98731.68;2420536;81;26013;-88
2023/01/09 16:53:52;;;;;;;12.53;11.25;;;;;;;9.00;72.25;98725.70;2331072;84;25708;-90
2023/01/09 16:57:25;;;;;;;11.95;10.65;;;;;;;9.24;71.89;98730.09;2332660;84;25671;-90
2023/01/09 17:01:08;;;;;;;11.97;9.73;;;;;;;9.49;71.41;98737.53;2327400;82;26282;-84
2023/01/09 17:04:38;;;;;;;15.55;10.70;;;;;;;9.71;71.07;98741.01;2335838;84;25799;-86
2023/01/09 17:08:33;;;;;;;11.00;9.80;;;;;;;9.90;70.58;98736.25;2326371;82;25697;-89
2023/01/09 17:12:18;;;;;;;11.40;10.18;;;;;;;10.09;70.19;98748.84;2234585;87;25791;-91
2023/01/09 17:15:54;;;;;;;12.47;9.75;;;;;;;10.26;69.73;98754.47;2238358;87;26094;-90
2023/01/09 17:19:35;;;;;;;12.23;10.85;;;;;;;10.40;69.34;98754.04;2204184;87;25981;-89
2023/01/09 17:23:24;;;;;;;;;;;;;;;;;;;;;
2023/01/09 17:30:41;;;;;;;11.53;10.32;;;;;;;10.76;68.27;98766.52;2151646;91;25718;-90
2023/01/09 17:34:12;;;;;;;11.05;9.93;;;;;;;10.86;67.87;98765.63;2127067;91;25705;-91
2023/01/09 17:37:48;;;;;;;12.23;10.78;;;;;;;10.95;67.47;98769.51;2130252;91;26062;-87
2023/01/09 17:41:29;;;;;;;15.18;10.05;;;;;;;11.03;67.23;98775.98;2124877;91;25697;-91
2023/01/09 17:45:11;;;;;;;11.12;9.85;;;;;;;11.10;66.85;98784.21;2120552;90;25566;-89
2023/01/09 17:48:40;;;;;;;11.22;10.15;;;;;;;11.16;66.67;98767.68;2141551;90;25582;-88
2023/01/09 17:52:09;;;;;;;15.93;11.35;;;;;;;11.20;66.47;98762.43;2129807;91;25626;-90
2023/01/09 17:55:57;;;;;;;11.90;10.70;;;;;;;11.25;66.25;98776.33;2080442;93;25768;-91
2023/01/09 17:59:29;;;;;;;11.22;9.93;;;;;;;11.30;66.04;98777.60;2097506;92;25725;-88
2023/01/09 18:03:10;;;;;;;11.12;10.03;;;;;;;11.39;65.90;98780.61;2056597;96;25763;-91
2023/01/09 18:06:56;;;;;;;12.37;10.23;;;;;;;11.39;65.90;98780.61;2050781;92;25723;-91
2023/01/09 18:10:29;;;;;;;15.35;10.08;;;;;;;11.42;65.54;98787.98;2087672;94;25764;-87
2023/01/09 18:14:04;;;;;;;11.40;10.30;;;;;;;11.45;65.27;98796.24;1999659;99;25658;-87
2023/01/09 18:17:34;;;;;;;11.97;9.75;;;;;;;11.41;65.15;98777.12;1982680;96;25655;-92
2023/01/09 18:21:21;;;;;;;;;;;;;;;;;;;;;
2023/01/09 18:24:47;;;;;;;;;;;;;;;11.55;64.92;98782.27;2034139;97;25588;-86
2023/01/09 18:28:22;;;;;;;12.15;10.43;;;;;;;11.56;64.70;98784.85;2033130;97;25610;-89
2023/01/09 18:35:29;;;;;;;11.35;10.28;;;;;;;11.60;64.39;98784.39;2027733;96;25286;-89
2023/01/09 18:39:08;;;;;;;10.75;9.65;;;;;;;11.63;64.39;98792.20;2051912;94;25334;-81
2023/01/09 18:42:51;;;;;;;13.93;11.50;;;;;;;11.52;64.26;98784.45;2036533;95;25896;-91
2023/01/09 18:46:23;;;;;;;13.22;10.45;;;;;;;11.69;64.06;98810.89;2100440;88;25715;-92
2023/01/09 18:49:50;;;;;;;12.65;10.65;;;;;;;11.71;63.99;98805.20;2067423;93;25653;-94
2023/01/09 18:53:27;;;;;;;10.90;9.90;;;;;;;11.72;63.91;98803.91;2077798;93;25793;-91
2023/01/09 18:57:07;;;;;;;11.70;10.53;;;;;;;11.74;63.81;98808.66;2076307;93;25731;-94
2023/01/09 19:00:44;;;;;;;12.58;11.22;;;;;;;11.75;63.70;98817.38;2003396;96;25658;-94
2023/01/09 19:04:24;;;;;;;12.45;9.28;;;;;;;11.76;63.63;98821.27;2000867;97;25706;-77
2023/01/09 19:08:12;;;;;;;12.60;10.82;;;;;;;11.76;63.56;98829.11;1928129;100;25864;-91
2023/01/09 19:12:10;;;;;;;11.80;10.53;;;;;;;11.78;63.56;98825.20;1920105;101;25936;-92
2023/01/09 19:15:48;;;;;;;12.78;10.05;;;;;;;11.78;63.46;98827.37;1918698;101;26255;-91
2023/01/09 19:19:32;;;;;;;14.68;10.93;;;;;;;11.80;63.27;98832.56;1904481;101;25849;-91
2023/01/09 19:31:21;;;;;;;10.45;9.43;;;;;;;11.83;63.23;98845.16;1742927;111;25808;-81
2023/01/09 19:34:57;;;;;;;9.85;8.93;;;;;;;11.84;63.17;98844.75;1766886;109;25727;-86
2023/01/09 19:39:25;;;;;;;;;;;;;;;;;;;;;
2023/01/09 19:47:19;;;;;;;11.05;9.78;;;;;;;11.89;63.01;98852.13;1792919;109;25664;-75
2023/01/09 19:50:41;;;;;;;14.07;9.98;;;;;;;11.91;62.96;98869.08;1796692;107;25900;-77
2023/01/09 19:54:02;;;;;;;9.45;8.55;;;;;;;11.92;62.92;98874.76;1824376;106;25884;-83
2023/01/09 19:57:38;;;;;;;11.35;10.30;;;;;;;11.95;62.85;98877.35;1822662;106;25796;-78
2023/01/09 20:01:30;;;;;;;;;;;;;;;;;;;;;
2023/01/09 20:04:59;;;;;;;11.20;10.07;;;;;;;11.97;62.70;98878.19;1767190;110;26334;-76
2023/01/09 20:08:49;;;;;;;13.78;11.80;;;;;;;11.98;62.61;98882.12;1768256;105;25693;-80
2023/01/09 20:16:03;;;;;;;;;;;;;;;11.99;62.50;98895.59;1795950;107;25695;-76
2023/01/09 20:19:28;;;;;;;13.93;10.38;;;;;;;11.99;62.40;98902.13;1769692;107;25968;-77
2023/01/09 20:23:09;;;;;;;12.98;9.60;;;;;;;11.99;62.71;98903.43;1764348;109;25712;-76
2023/01/09 20:30:51;;;;;;;13.00;10.18;;;;;;;12.09;62.96;98912.08;1747835;110;25812;-77
